createdAt,value
2022-12-05T00:00:36.699Z,6.88
2022-12-05T00:04:41.203Z,7.15
2022-12-05T00:08:45.127Z,8.35
2022-12-05T00:12:48.801Z,6.38
2022-12-05T00:16:51.934Z,6.55
2022-12-05T00:20:56.898Z,7.53
2022-12-05T00:25:00.472Z,6.75
2022-12-05T00:29:03.607Z,7.75
2022-12-05T00:33:07.440Z,9.35
2022-12-05T00:37:12.494Z,7.55
2022-12-05T00:41:17.984Z,7.35
2022-12-05T00:45:21.543Z,7.82
2022-12-05T00:49:24.668Z,7.43
2022-12-05T00:53:29.586Z,8.20
2022-12-05T00:57:34.013Z,9.40
2022-12-05T01:01:39.734Z,9.50
2022-12-05T01:05:43.282Z,11.13
2022-12-05T01:09:48.514Z,11.27
2022-12-05T01:13:51.943Z,12.77
2022-12-05T01:17:55.599Z,13.20
2022-12-05T01:22:00.216Z,13.98
2022-12-05T01:26:07.970Z,13.65
2022-12-05T01:30:11.799Z,15.00
2022-12-05T01:34:17.804Z,14.20
2022-12-05T01:38:21.211Z,15.00
2022-12-05T01:42:26.685Z,16.17
2022-12-05T01:46:32.759Z,15.25
2022-12-05T01:50:36.742Z,15.90
2022-12-05T01:54:40.671Z,13.77
2022-12-05T01:58:47.554Z,16.08
2022-12-05T02:02:54.056Z,13.75
2022-12-05T02:06:57.723Z,15.50
2022-12-05T02:11:01.112Z,13.43
2022-12-05T02:15:23.593Z,15.13
2022-12-05T02:19:59.306Z,14.18
2022-12-05T02:24:27.204Z,13.40
2022-12-05T02:29:00.556Z,13.57
2022-12-05T02:33:14.601Z,12.10
2022-12-05T02:37:24.714Z,11.95
2022-12-05T02:41:34.045Z,12.95
2022-12-05T02:45:41.482Z,12.52
2022-12-05T02:49:46.802Z,13.65
2022-12-05T02:53:52.108Z,12.30
2022-12-05T02:58:00.444Z,13.55
2022-12-05T03:02:03.997Z,13.93
2022-12-05T03:06:15.449Z,13.70
2022-12-05T03:10:23.226Z,12.50
2022-12-05T03:14:30.262Z,14.43
2022-12-05T03:18:39.293Z,12.30
2022-12-05T03:22:48.423Z,12.13
2022-12-05T03:27:03.300Z,12.10
2022-12-05T03:31:12.618Z,12.27
2022-12-05T03:35:24.957Z,12.30
2022-12-05T03:39:34.527Z,14.00
2022-12-05T03:43:46.176Z,14.75
2022-12-05T03:47:52.904Z,15.80
2022-12-05T03:52:02.112Z,13.32
2022-12-05T03:56:12.302Z,13.63
2022-12-05T04:00:19.581Z,13.13
2022-12-05T04:04:27.554Z,14.23
2022-12-05T04:08:35.137Z,12.10
2022-12-05T04:12:43.352Z,9.50
2022-12-05T04:17:04.978Z,11.05
2022-12-05T04:21:26.260Z,9.98
2022-12-05T04:25:38.547Z,8.65
2022-12-05T04:29:52.459Z,8.57
2022-12-05T04:34:00.352Z,8.98
2022-12-05T04:38:08.577Z,7.60
2022-12-05T04:42:16.316Z,8.50
2022-12-05T04:46:24.157Z,7.43
2022-12-05T04:50:31.382Z,7.22
2022-12-05T04:54:39.618Z,7.00
2022-12-05T04:58:43.273Z,5.28
2022-12-05T05:02:52.277Z,6.28
2022-12-05T05:06:55.893Z,5.63
2022-12-05T05:11:14.518Z,6.05
2022-12-05T05:15:18.232Z,5.05
2022-12-05T05:19:23.285Z,6.15
2022-12-05T05:23:29.709Z,6.82
2022-12-05T05:27:32.663Z,4.72
2022-12-05T05:31:36.833Z,5.13
2022-12-05T05:35:41.697Z,6.13
2022-12-05T05:39:45.489Z,6.60
2022-12-05T05:43:49.394Z,6.90
2022-12-05T05:47:52.500Z,6.82
2022-12-05T05:51:57.431Z,5.55
2022-12-05T05:56:04.743Z,6.43
2022-12-05T06:00:09.832Z,6.50
2022-12-05T06:04:12.830Z,6.22
2022-12-05T06:08:17.758Z,7.05
2022-12-05T06:12:21.382Z,7.65
2022-12-05T06:16:25.800Z,5.38
2022-12-05T06:20:29.420Z,5.82
2022-12-05T06:24:34.012Z,6.95
2022-12-05T06:28:37.795Z,6.65
2022-12-05T06:32:42.065Z,8.30
2022-12-05T06:36:46.324Z,6.63
2022-12-05T06:40:50.700Z,7.28
2022-12-05T06:44:54.313Z,9.00
2022-12-05T06:48:58.980Z,7.70
2022-12-05T06:53:02.824Z,8.38
2022-12-05T06:57:07.805Z,7.68
2022-12-05T07:01:31.345Z,9.20
2022-12-05T07:05:35.464Z,7.80
2022-12-05T07:09:49.060Z,8.48
2022-12-05T07:13:54.265Z,7.13
2022-12-05T07:17:57.459Z,7.68
2022-12-05T07:22:00.525Z,8.55
2022-12-05T07:26:07.917Z,7.93
2022-12-05T07:30:13.156Z,8.38
2022-12-05T07:34:16.830Z,9.30
2022-12-05T07:38:19.958Z,9.07
2022-12-05T07:42:23.584Z,6.75
2022-12-05T07:46:30.270Z,9.45
2022-12-05T07:50:33.923Z,9.60
2022-12-05T07:54:37.149Z,7.38
2022-12-05T07:58:40.788Z,8.65
2022-12-05T08:02:46.140Z,8.88
2022-12-05T08:06:49.506Z,11.60
2022-12-05T08:10:53.431Z,8.73
2022-12-05T08:14:57.365Z,8.35
2022-12-05T08:19:04.012Z,8.52
2022-12-05T08:23:07.579Z,8.13
2022-12-05T08:27:10.858Z,9.32
2022-12-05T08:31:16.529Z,10.00
2022-12-05T08:35:21.534Z,9.05
2022-12-05T08:39:24.851Z,9.20
2022-12-05T08:43:28.404Z,9.30
2022-12-05T08:47:32.589Z,10.70
2022-12-05T08:51:37.882Z,9.85
2022-12-05T08:55:41.619Z,10.23
2022-12-05T08:59:47.230Z,9.93
2022-12-05T09:03:50.947Z,10.00
2022-12-05T09:07:55.835Z,8.40
2022-12-05T09:12:00.878Z,10.18
2022-12-05T09:16:09.040Z,9.35
2022-12-05T09:20:14.523Z,9.82
2022-12-05T09:24:19.225Z,9.98
2022-12-05T09:28:24.154Z,8.63
2022-12-05T09:32:28.297Z,9.90
2022-12-05T09:36:33.597Z,10.73
2022-12-05T09:40:43.608Z,9.52
2022-12-05T09:45:00.906Z,11.02
2022-12-05T09:49:05.871Z,10.23
2022-12-05T09:53:16.405Z,9.85
2022-12-05T09:57:33.859Z,11.15
2022-12-05T10:01:43.184Z,10.13
2022-12-05T10:05:52.063Z,6.97
2022-12-05T10:10:04.782Z,8.23
2022-12-05T10:14:25.119Z,7.10
2022-12-05T10:18:38.851Z,7.63
2022-12-05T10:22:49.319Z,6.10
2022-12-05T10:26:57.381Z,7.13
2022-12-05T10:31:07.238Z,6.40
2022-12-05T10:35:18.877Z,6.05
2022-12-05T10:39:22.696Z,6.80
2022-12-05T10:43:29.447Z,6.85
2022-12-05T10:47:35.058Z,6.88
2022-12-05T10:51:39.368Z,5.57
2022-12-05T10:56:06.371Z,5.25
2022-12-05T11:00:15.929Z,6.88
2022-12-05T11:04:28.201Z,6.15
2022-12-05T11:09:02.969Z,7.30
2022-12-05T11:12:59.339Z,6.72
2022-12-05T11:17:04.948Z,5.88
2022-12-05T11:21:14.532Z,5.57
2022-12-05T11:25:26.544Z,5.65
2022-12-05T11:29:37.032Z,6.67
2022-12-05T11:33:41.428Z,6.72
2022-12-05T11:37:53.925Z,7.10
2022-12-05T11:46:58.420Z,5.68
2022-12-05T11:51:18.170Z,5.47
2022-12-05T11:55:28.852Z,5.78
2022-12-05T11:59:55.288Z,6.05
2022-12-05T12:04:26.056Z,5.60
2022-12-05T12:08:31.631Z,5.30
2022-12-05T12:12:48.956Z,5.60
2022-12-05T12:17:04.424Z,5.22
2022-12-05T12:21:19.862Z,4.18
2022-12-05T12:25:35.248Z,4.93
2022-12-05T12:30:01.974Z,4.53
2022-12-05T12:34:21.224Z,4.55
2022-12-05T12:38:46.879Z,4.47
2022-12-05T12:43:07.311Z,4.88
2022-12-05T12:47:19.967Z,5.57
2022-12-05T12:51:23.040Z,5.43
2022-12-05T12:55:33.433Z,6.82
2022-12-05T12:59:59.077Z,5.50
2022-12-05T13:04:13.158Z,7.45
2022-12-05T13:08:25.442Z,6.43
2022-12-05T13:12:31.620Z,6.55
2022-12-05T13:16:45.864Z,6.85
2022-12-05T13:20:54.431Z,6.80
2022-12-05T13:25:05.977Z,6.30
2022-12-05T13:29:22.769Z,6.15
2022-12-05T13:33:28.837Z,6.32
2022-12-05T13:37:51.564Z,6.65
2022-12-05T13:42:16.586Z,7.07
2022-12-05T13:46:27.840Z,6.32
2022-12-05T13:50:37.675Z,7.65
2022-12-05T13:54:47.875Z,7.75
2022-12-05T13:58:52.725Z,8.13
2022-12-05T14:02:59.094Z,5.45
2022-12-05T14:07:03.077Z,6.10
2022-12-05T14:11:13.103Z,4.72
2022-12-05T14:15:43.451Z,5.85
2022-12-05T14:20:01.867Z,6.80
2022-12-05T14:24:12.779Z,5.70
2022-12-05T14:28:38.150Z,4.82
2022-12-05T14:32:44.639Z,5.35
2022-12-05T14:37:06.663Z,4.53
2022-12-05T14:41:17.244Z,4.23
2022-12-05T14:45:30.545Z,5.63
2022-12-05T14:49:55.406Z,6.05
2022-12-05T14:54:04.566Z,4.82
2022-12-05T14:58:18.123Z,5.10
2022-12-05T15:02:28.896Z,5.03
2022-12-05T15:06:35.227Z,5.45
2022-12-05T15:10:41.834Z,5.00
2022-12-05T15:14:51.793Z,5.00
2022-12-05T15:19:00.296Z,5.10
2022-12-05T15:23:04.073Z,5.45
2022-12-05T15:27:11.764Z,4.10
2022-12-05T15:31:15.987Z,4.70
2022-12-05T15:35:24.053Z,5.10
2022-12-05T15:39:28.791Z,5.85
2022-12-05T15:43:33.865Z,5.15
2022-12-05T15:47:37.375Z,5.50
2022-12-05T15:51:42.523Z,4.97
2022-12-05T15:55:50.587Z,5.13
2022-12-05T15:59:58.342Z,5.88
2022-12-05T16:04:06.868Z,5.18
2022-12-05T16:08:11.476Z,4.95
2022-12-05T16:12:24.852Z,5.78
2022-12-05T16:16:32.628Z,6.05
2022-12-05T16:20:37.735Z,4.78
2022-12-05T16:24:46.448Z,6.22
2022-12-05T16:29:00.790Z,5.25
2022-12-05T16:33:07.418Z,5.45
2022-12-05T16:37:20.327Z,5.65
2022-12-05T16:41:37.332Z,5.72
2022-12-05T16:45:42.270Z,5.55
2022-12-05T16:49:47.258Z,6.25
2022-12-05T16:53:52.661Z,6.28
2022-12-05T16:57:57.611Z,6.60
2022-12-05T17:02:02.528Z,4.97
2022-12-05T17:06:07.618Z,6.40
2022-12-05T17:10:11.482Z,5.10
2022-12-05T17:14:19.120Z,5.60
2022-12-05T17:18:29.605Z,5.78
2022-12-05T17:22:35.003Z,6.60
2022-12-05T17:26:38.045Z,5.72
2022-12-05T17:30:43.302Z,6.20
2022-12-05T17:34:46.855Z,6.28
2022-12-05T17:38:50.928Z,5.00
2022-12-05T17:42:54.572Z,4.97
2022-12-05T17:47:04.475Z,6.70
2022-12-05T17:51:13.660Z,5.35
2022-12-05T17:55:20.560Z,6.38
2022-12-05T17:59:23.630Z,5.95
2022-12-05T18:03:28.821Z,6.55
2022-12-05T18:07:32.795Z,6.63
2022-12-05T18:11:36.767Z,6.97
2022-12-05T18:20:06.615Z,5.85
2022-12-05T18:24:10.217Z,6.00
2022-12-05T18:28:17.826Z,5.38
2022-12-05T18:32:26.871Z,5.05
2022-12-05T18:36:32.562Z,4.53
2022-12-05T18:40:41.159Z,5.68
2022-12-05T18:44:47.621Z,4.93
2022-12-05T18:48:53.341Z,5.80
2022-12-05T18:52:58.607Z,5.38
2022-12-05T18:57:02.191Z,4.47
2022-12-05T19:01:08.246Z,5.10
2022-12-05T19:05:12.403Z,5.20
2022-12-05T19:09:24.611Z,4.60
2022-12-05T19:13:30.334Z,5.10
2022-12-05T19:22:02.758Z,3.45
2022-12-05T19:26:10.284Z,5.03
2022-12-05T19:30:16.491Z,4.15
2022-12-05T19:34:20.294Z,3.30
2022-12-05T19:38:24.188Z,2.75
2022-12-05T19:42:29.686Z,3.63
2022-12-05T19:46:35.170Z,2.50
2022-12-05T19:50:38.830Z,3.22
2022-12-05T19:54:42.332Z,2.50
2022-12-05T19:58:48.516Z,2.85
2022-12-05T20:02:51.616Z,3.80
2022-12-05T20:06:55.354Z,3.42
2022-12-05T20:10:58.712Z,2.40
2022-12-05T20:15:04.303Z,2.45
2022-12-05T20:19:16.676Z,2.50
2022-12-05T20:23:21.175Z,2.17
2022-12-05T20:27:25.877Z,2.75
2022-12-05T20:31:37.460Z,2.70
2022-12-05T20:35:42.198Z,2.13
2022-12-05T20:39:46.525Z,2.30
2022-12-05T20:43:55.913Z,1.60
